Time;durP1;ratioP1;P1;durP2;ratioP2;P2;SDS_P1;SDS_P2;PMS_P1;PMS_P2;Temp;Humidity;BMP_temperature;BMP_pressure;BME280_temperature;BME280_humidity;BME280_pressure;Samples;Min_cycle;Max_cycle;Signal;HPM_P1;HPM_P2
2022/08/14 00:01:29;;;;;;;8.88;7.80;;;;;;;19.89;65.93;101080.63;5089920;28;20028;-73
2022/08/14 00:03:54;;;;;;;8.82;7.97;;;;;;;19.83;66.32;101086.78;5089840;28;20028;-73
2022/08/14 00:06:20;;;;;;;8.02;7.43;;;;;;;19.74;66.88;101076.28;5089495;28;20086;-73
2022/08/14 00:08:45;;;;;;;8.32;7.57;;;;;;;19.65;67.19;101072.81;5088877;28;20020;-73
2022/08/14 00:11:10;;;;;;;11.20;8.05;;;;;;;19.63;67.21;101079.81;5089402;28;20028;-72
2022/08/14 00:13:36;;;;;;;8.95;8.13;;;;;;;19.61;67.29;101075.47;5089499;28;20031;-73
2022/08/14 00:16:02;;;;;;;9.00;8.23;;;;;;;19.55;67.50;101071.09;5084203;28;20499;-73
2022/08/14 00:18:28;;;;;;;9.20;8.27;;;;;;;19.54;67.78;101069.31;5079302;28;20020;-72
2022/08/14 00:20:54;;;;;;;8.73;7.93;;;;;;;19.47;68.35;101067.56;5089084;28;20024;-73
2022/08/14 00:23:20;;;;;;;9.18;8.38;;;;;;;19.41;68.80;101064.06;5089007;28;20031;-73
2022/08/14 00:25:49;;;;;;;8.73;8.00;;;;;;;19.37;68.82;101062.34;5089070;28;20153;-72
2022/08/14 00:28:14;;;;;;;9.32;8.43;;;;;;;19.35;68.72;101063.22;5089416;28;20047;-73
2022/08/14 00:30:40;;;;;;;9.43;8.43;;;;;;;19.29;69.19;101054.47;5089006;28;20035;-72
2022/08/14 00:33:06;;;;;;;8.68;7.95;;;;;;;19.29;68.96;101050.97;5088827;28;20031;-72
2022/08/14 00:35:33;;;;;;;9.77;8.13;;;;;;;19.26;69.58;101048.34;5088863;28;20073;-72
2022/08/14 00:37:59;;;;;;;8.82;8.02;;;;;;;19.19;69.63;101053.59;5088291;28;20259;-73
2022/08/14 00:40:25;;;;;;;9.30;8.50;;;;;;;19.14;69.72;101039.59;5084714;28;20527;-72
2022/08/14 00:42:50;;;;;;;9.40;8.50;;;;;;;19.10;70.38;101032.56;5089181;28;20047;-72
2022/08/14 00:45:16;;;;;;;9.13;8.23;;;;;;;19.05;70.36;101034.34;5089115;28;20501;-72
2022/08/14 00:47:44;;;;;;;8.50;7.53;;;;;;;19.00;70.49;101021.19;5088510;28;20372;-73
2022/08/14 00:50:13;;;;;;;8.02;7.13;;;;;;;18.98;70.55;101025.56;5087477;28;20016;-72
2022/08/14 00:52:44;;;;;;;8.18;7.43;;;;;;;18.91;71.47;101022.06;5077478;28;20028;-73
2022/08/14 00:55:10;;;;;;;9.10;8.07;;;;;;;18.88;71.06;101024.69;5088843;28;20028;-72
2022/08/14 00:57:36;;;;;;;8.82;8.00;;;;;;;18.86;71.61;101022.94;5088576;28;20051;-72
2022/08/14 01:00:11;;;;;;;8.65;7.85;;;;;;;18.82;71.78;101022.94;5088787;28;20064;-71
2022/08/14 01:02:39;;;;;;;9.20;8.25;;;;;;;18.81;71.50;101017.69;5072385;28;20019;-72
2022/08/14 01:05:06;;;;;;;9.32;7.93;;;;;;;18.79;71.79;101012.44;5088434;28;20498;-73
2022/08/14 01:07:32;;;;;;;8.45;7.57;;;;;;;18.73;72.23;101012.44;5088569;28;20117;-72
2022/08/14 01:10:06;;;;;;;9.27;8.57;;;;;;;18.68;72.46;101004.56;5088077;28;20032;-72
2022/08/14 01:12:32;;;;;;;8.77;7.97;;;;;;;18.65;72.36;100999.31;5088933;28;20070;-72
2022/08/14 01:15:00;;;;;;;8.05;7.35;;;;;;;18.62;72.54;101004.53;5078971;28;20145;-72
2022/08/14 01:21:02;;;;;;;8.00;7.30;;;;;;;18.60;72.39;101001.06;5083491;28;20030;-72
2022/08/14 01:23:01;;;;;;;8.45;7.72;;;;;;;18.58;71.80;100989.69;5088512;28;20093;-72
2022/08/14 01:25:26;;;;;;;8.52;7.82;;;;;;;18.57;72.16;100990.53;5087763;28;20482;-72
2022/08/14 01:27:54;;;;;;;8.80;8.10;;;;;;;18.54;71.96;100987.94;5088013;28;20439;-73
2022/08/14 01:30:21;;;;;;;9.15;8.40;;;;;;;18.50;72.68;100988.78;5085242;28;20165;-72
2022/08/14 01:32:46;;;;;;;8.75;8.00;;;;;;;18.47;72.57;100990.53;5087834;28;20027;-72
2022/08/14 01:35:12;;;;;;;8.93;8.20;;;;;;;18.46;72.76;100983.53;5078864;28;20509;-72
2022/08/14 01:37:37;;;;;;;7.50;6.90;;;;;;;18.47;72.80;100982.66;5082599;28;20032;-71
2022/08/14 01:40:03;;;;;;;8.60;7.90;;;;;;;18.45;73.37;100994.91;5087817;28;20043;-72
2022/08/14 01:42:28;;;;;;;7.55;6.95;;;;;;;18.45;72.96;100987.06;5070767;28;20085;-72
2022/08/14 01:44:57;;;;;;;7.70;6.95;;;;;;;18.43;73.48;100991.41;5088007;28;20085;-72
2022/08/14 01:47:23;;;;;;;8.85;7.95;;;;;;;18.40;73.89;100994.03;5087186;28;20031;-73
2022/08/14 01:49:50;;;;;;;8.50;7.63;;;;;;;18.36;73.97;100989.66;5088236;28;20376;-72
2022/08/14 01:52:16;;;;;;;9.55;8.10;;;;;;;18.34;74.03;100992.28;5087452;28;20016;-72
2022/08/14 01:54:42;;;;;;;7.50;6.90;;;;;;;18.31;74.75;100988.78;5087989;28;20031;-72
2022/08/14 01:57:10;;;;;;;7.57;6.88;;;;;;;18.28;74.88;100999.22;5087612;28;20020;-72
2022/08/14 01:59:37;;;;;;;7.90;7.13;;;;;;;18.27;74.62;100995.75;5087435;28;20028;-69
2022/08/14 02:02:11;;;;;;;8.38;7.57;;;;;;;18.23;74.68;100987.00;5087756;28;20495;-72
2022/08/14 02:04:37;;;;;;;9.07;8.25;;;;;;;18.17;75.38;100994.00;5087498;28;20072;-72
2022/08/14 02:07:05;;;;;;;8.88;7.75;;;;;;;18.11;76.02;100981.69;5087256;28;20170;-72
2022/08/14 02:09:34;;;;;;;8.07;7.28;;;;;;;18.07;76.57;100979.94;5087626;28;20035;-72
2022/08/14 02:12:00;;;;;;;8.60;7.85;;;;;;;18.01;76.67;100975.53;5087371;28;20035;-72
2022/08/14 02:14:25;;;;;;;8.13;7.47;;;;;;;17.99;76.37;100977.28;5087107;28;20023;-71
2022/08/14 02:16:52;;;;;;;8.38;7.60;;;;;;;17.96;76.43;100978.16;5087147;28;20479;-71
2022/08/14 02:19:21;;;;;;;9.95;8.15;;;;;;;17.92;76.36;100976.38;5086993;28;20107;-73
2022/08/14 02:21:50;;;;;;;8.60;7.80;;;;;;;17.86;76.58;100981.63;5086483;28;20022;-71
2022/08/14 02:24:19;;;;;;;9.55;8.68;;;;;;;17.79;77.18;100985.09;5087007;28;20027;-71
2022/08/14 02:26:46;;;;;;;8.07;7.32;;;;;;;17.75;77.33;100985.03;5087125;28;20486;-70
2022/08/14 02:29:16;;;;;;;9.13;8.43;;;;;;;17.71;77.37;100977.19;5086909;28;20331;-71
2022/08/14 02:31:45;;;;;;;8.98;8.18;;;;;;;17.70;78.06;100981.53;5086316;28;20028;-72
2022/08/14 02:34:17;;;;;;;9.70;8.90;;;;;;;17.66;77.92;100982.41;5087344;28;20380;-73
2022/08/14 02:36:44;;;;;;;10.20;9.27;;;;;;;17.65;78.13;100983.25;5087351;28;20063;-71
2022/08/14 02:39:10;;;;;;;11.25;10.15;;;;;;;17.61;78.28;100981.50;5074459;28;20464;-73
2022/08/14 02:41:36;;;;;;;11.82;10.63;;;;;;;17.56;78.39;100983.25;5084227;28;20048;-72
2022/08/14 02:44:09;;;;;;;11.43;10.48;;;;;;;17.55;78.38;100981.47;5086913;28;20281;-72
2022/08/14 02:46:35;;;;;;;11.90;10.90;;;;;;;17.52;78.28;100982.34;5075174;28;20066;-72
2022/08/14 02:49:00;;;;;;;11.52;10.55;;;;;;;17.48;78.54;100976.22;5067068;28;20056;-72
2022/08/14 02:51:26;;;;;;;15.73;11.00;;;;;;;17.44;78.64;100974.44;5086370;28;20028;-72
2022/08/14 02:53:53;;;;;;;14.07;11.30;;;;;;;17.40;79.14;100977.91;5086548;28;20024;-72
2022/08/14 02:56:18;;;;;;;12.05;10.93;;;;;;;17.34;79.21;100967.41;5086629;28;20032;-71
2022/08/14 02:58:46;;;;;;;12.43;11.15;;;;;;;17.27;79.75;100977.81;5086657;28;20036;-72
2022/08/14 03:01:14;;;;;;;13.82;11.35;;;;;;;17.22;80.07;100976.91;5086392;28;20113;-72
2022/08/14 03:03:40;;;;;;;12.65;11.18;;;;;;;17.16;80.19;100969.03;5086635;28;20407;-72
2022/08/14 03:06:08;;;;;;;11.60;10.65;;;;;;;17.15;80.22;100970.78;5086330;28;20106;-70
2022/08/14 03:08:37;;;;;;;11.35;10.32;;;;;;;17.11;80.67;100960.25;5086444;28;20020;-72
2022/08/14 03:11:06;;;;;;;12.32;11.20;;;;;;;17.07;81.01;100958.47;5086330;28;20372;-72
2022/08/14 03:13:36;;;;;;;12.55;11.48;;;;;;;17.03;81.38;100953.22;5086712;28;20066;-70
2022/08/14 03:16:03;;;;;;;12.73;11.50;;;;;;;16.99;82.08;100953.16;5086057;28;20056;-72
2022/08/14 03:18:29;;;;;;;11.90;10.75;;;;;;;16.95;82.03;100954.88;5086586;28;20020;-72
2022/08/14 03:20:54;;;;;;;12.18;10.75;;;;;;;16.93;82.68;100954.88;5086886;28;20103;-72
2022/08/14 03:23:20;;;;;;;12.27;11.27;;;;;;;16.91;82.67;100955.72;5086693;28;20332;-72
2022/08/14 03:25:46;;;;;;;11.20;10.23;;;;;;;16.89;82.96;100967.94;5086411;28;20031;-72
2022/08/14 03:28:12;;;;;;;11.65;10.60;;;;;;;16.85;82.87;100959.19;5086694;28;20417;-71
2022/08/14 03:30:38;;;;;;;12.57;11.10;;;;;;;16.83;83.53;100960.03;5085314;28;20027;-70
2022/08/14 03:33:09;;;;;;;12.45;11.27;;;;;;;16.79;83.59;100948.66;5086132;28;20030;-71
2022/08/14 03:35:34;;;;;;;13.57;10.27;;;;;;;16.75;83.54;100947.75;5086897;28;20027;-71
2022/08/14 03:38:10;;;;;;;11.68;10.60;;;;;;;16.70;83.75;100952.06;5086403;28;20027;-71
2022/08/14 03:40:39;;;;;;;11.07;10.23;;;;;;;16.68;84.72;100945.94;5086277;28;20446;-71
2022/08/14 03:43:07;;;;;;;11.98;10.95;;;;;;;16.68;84.61;100945.94;5085995;28;20468;-71
2022/08/14 03:45:34;;;;;;;10.65;9.75;;;;;;;16.69;84.38;100947.72;5085830;28;20077;-71
2022/08/14 03:48:14;;;;;;;11.80;10.63;;;;;;;16.68;84.27;100943.34;5079798;28;20017;-71
2022/08/14 03:50:40;;;;;;;10.63;9.82;;;;;;;16.66;84.47;100940.72;5085985;28;20080;-72
2022/08/14 03:53:05;;;;;;;10.70;9.60;;;;;;;16.64;84.93;100944.19;5087180;28;20030;-71
2022/08/14 03:55:31;;;;;;;10.38;9.57;;;;;;;16.60;85.00;100942.41;5085393;28;20624;-71
2022/08/14 03:57:57;;;;;;;10.88;10.07;;;;;;;16.58;85.22;100944.13;5089901;28;20186;-71
2022/08/14 04:00:22;;;;;;;10.27;9.43;;;;;;;16.56;85.16;100946.72;5090043;28;20059;-71
2022/08/14 04:02:48;;;;;;;11.40;10.40;;;;;;;16.53;85.03;100942.34;5089688;28;20428;-71
2022/08/14 04:05:14;;;;;;;10.70;9.77;;;;;;;16.51;85.68;100943.22;5089515;28;20418;-71
2022/08/14 04:07:40;;;;;;;10.68;9.65;;;;;;;16.49;85.78;100945.81;5089376;28;20047;-71
2022/08/14 04:10:06;;;;;;;9.88;8.95;;;;;;;16.46;86.02;100943.13;5089755;28;20114;-71
2022/08/14 04:12:32;;;;;;;11.32;10.23;;;;;;;16.43;86.87;100945.75;5088955;28;20016;-71
2022/08/14 04:14:58;;;;;;;10.93;10.07;;;;;;;16.39;86.98;100938.72;5087521;28;20059;-71
2022/08/14 04:17:25;;;;;;;10.90;10.00;;;;;;;16.35;86.85;100939.56;5087368;28;20077;-72
2022/08/14 04:19:50;;;;;;;10.63;9.73;;;;;;;16.32;87.27;100946.53;5087759;28;20436;-71
2022/08/14 04:22:15;;;;;;;11.73;10.73;;;;;;;16.29;87.37;100936.03;5087759;28;20032;-70
2022/08/14 04:24:41;;;;;;;11.90;10.75;;;;;;;16.25;88.09;100929.00;5086896;28;20073;-72
2022/08/14 04:27:08;;;;;;;11.38;10.52;;;;;;;16.23;87.94;100938.56;5088933;28;20028;-72
2022/08/14 04:29:38;;;;;;;12.18;11.07;;;;;;;16.23;87.54;100927.22;5074760;28;20024;-72
2022/08/14 04:32:07;;;;;;;11.75;10.73;;;;;;;16.21;87.50;100929.84;5088990;28;20032;-71
2022/08/14 04:34:32;;;;;;;11.43;10.52;;;;;;;16.20;87.41;100922.88;5088927;28;20024;-71
2022/08/14 04:45:09;;;;;;;13.10;11.93;;;;;;;16.17;87.46;100907.16;5088941;28;20060;-71
2022/08/14 04:50:18;;;;;;;11.93;10.98;;;;;;;16.15;87.80;100911.50;5089035;28;20239;-71
2022/08/14 04:52:43;;;;;;;13.93;12.63;;;;;;;16.14;88.30;100907.09;5088577;28;20429;-71
2022/08/14 04:55:09;;;;;;;13.13;12.13;;;;;;;16.13;88.69;100900.13;5088814;28;20032;-71
2022/08/14 04:57:37;;;;;;;12.43;11.27;;;;;;;16.14;88.69;100908.00;5088540;28;20023;-70
2022/08/14 05:00:05;;;;;;;12.50;11.40;;;;;;;16.15;88.75;100898.44;5088543;28;20056;-70
2022/08/14 05:02:33;;;;;;;13.25;12.05;;;;;;;16.16;88.69;100895.81;5088871;28;20095;-71
2022/08/14 05:04:58;;;;;;;12.05;11.02;;;;;;;16.19;88.45;100900.22;5088211;28;20024;-71
2022/08/14 05:07:24;;;;;;;12.20;11.05;;;;;;;16.23;88.24;100894.13;5088649;28;20503;-71
2022/08/14 05:09:49;;;;;;;13.18;12.00;;;;;;;16.26;87.78;100886.31;5078445;28;20021;-70
2022/08/14 05:12:15;;;;;;;11.98;10.98;;;;;;;16.30;88.30;100893.34;5084615;28;20032;-71
2022/08/14 05:14:40;;;;;;;12.73;11.52;;;;;;;16.33;88.56;100898.56;5088519;28;20046;-71
2022/08/14 05:17:06;;;;;;;11.98;11.07;;;;;;;16.39;88.19;100902.09;5088551;28;20149;-70
2022/08/14 05:19:31;;;;;;;15.27;13.20;;;;;;;16.43;88.48;100896.06;5088038;28;20399;-69
2022/08/14 05:21:57;;;;;;;14.27;12.98;;;;;;;16.47;88.45;100899.56;5088286;28;20078;-70
2022/08/14 05:24:22;;;;;;;13.75;12.35;;;;;;;16.51;88.43;100890.91;5088103;28;20277;-71
2022/08/14 05:26:48;;;;;;;13.43;12.25;;;;;;;16.56;88.27;100902.28;5088548;28;20020;-71
2022/08/14 05:29:13;;;;;;;14.40;12.90;;;;;;;16.63;87.80;100890.09;5087925;28;20013;-70
2022/08/14 05:31:39;;;;;;;15.07;12.48;;;;;;;16.69;87.71;100895.41;5087917;28;20046;-71
2022/08/14 05:34:07;;;;;;;14.05;12.95;;;;;;;16.77;88.42;100888.47;5062244;28;20027;-70
2022/08/14 05:36:33;;;;;;;14.80;13.55;;;;;;;16.85;87.93;100888.53;5087852;28;20020;-70
2022/08/14 05:38:59;;;;;;;14.30;12.77;;;;;;;16.96;88.05;100887.72;5088055;28;20464;-70
2022/08/14 05:41:24;;;;;;;14.65;13.23;;;;;;;17.04;87.55;100886.00;5087444;28;20063;-70
2022/08/14 05:43:50;;;;;;;14.48;13.38;;;;;;;17.14;87.47;100890.47;5082197;28;20020;-70
2022/08/14 05:46:17;;;;;;;14.20;12.80;;;;;;;17.25;87.77;100890.53;5079937;28;20123;-71
2022/08/14 05:48:47;;;;;;;14.32;13.02;;;;;;;17.36;88.19;100887.09;5087180;28;20089;-70
2022/08/14 05:51:12;;;;;;;13.52;12.15;;;;;;;17.46;87.67;100882.75;5087789;28;20043;-69
2022/08/14 05:53:38;;;;;;;14.30;13.10;;;;;;;17.57;87.39;100886.31;5087567;28;20153;-70
2022/08/14 05:56:03;;;;;;;14.55;13.50;;;;;;;17.67;87.39;100881.97;5086947;28;20464;-70
2022/08/14 05:58:29;;;;;;;13.68;12.65;;;;;;;17.80;86.52;100882.88;5087377;28;20031;-70
2022/08/14 06:00:56;;;;;;;13.20;11.88;;;;;;;17.95;86.47;100884.63;5087809;28;20456;-71
2022/08/14 06:03:22;;;;;;;14.25;13.05;;;;;;;18.08;85.46;100882.06;5087730;28;20027;-70
2022/08/14 06:05:51;;;;;;;13.02;11.98;;;;;;;18.23;84.65;100887.34;5086946;28;20047;-70
2022/08/14 06:08:27;;;;;;;13.25;12.05;;;;;;;18.39;83.23;100884.72;5076645;28;20081;-70
2022/08/14 06:10:56;;;;;;;12.48;11.48;;;;;;;18.57;81.95;100885.59;5085992;28;20525;-70
2022/08/14 06:13:22;;;;;;;12.90;11.82;;;;;;;18.76;81.67;100880.34;5087528;28;20028;-71
2022/08/14 06:15:48;;;;;;;13.60;12.48;;;;;;;18.90;80.96;100883.81;5087010;28;20507;-70
2022/08/14 06:18:15;;;;;;;14.27;13.07;;;;;;;19.08;80.12;100884.66;5087362;28;20531;-70
2022/08/14 06:20:40;;;;;;;14.02;12.73;;;;;;;19.27;79.39;100882.84;5086729;28;20024;-70
2022/08/14 06:23:06;;;;;;;12.73;11.70;;;;;;;19.49;78.40;100882.78;5085681;28;20050;-69
2022/08/14 06:25:31;;;;;;;14.48;13.25;;;;;;;19.68;77.48;100878.28;5087206;28;20561;-70
2022/08/14 06:27:57;;;;;;;12.63;11.52;;;;;;;19.86;77.24;100872.94;5086597;28;20022;-70
2022/08/14 06:30:26;;;;;;;13.07;11.88;;;;;;;20.04;77.27;100879.81;5086783;28;20024;-70
2022/08/14 06:32:52;;;;;;;13.38;12.13;;;;;;;20.20;75.81;100869.25;5086524;28;20020;-70
2022/08/14 06:35:22;;;;;;;12.32;11.07;;;;;;;20.39;75.68;100872.59;5087143;28;20398;-71
2022/08/14 06:37:54;;;;;;;11.55;10.57;;;;;;;20.60;74.95;100874.16;5086259;28;20032;-70
2022/08/14 06:40:26;;;;;;;12.57;11.57;;;;;;;20.71;74.70;100873.16;5086924;28;20404;-70
2022/08/14 06:42:52;;;;;;;13.70;11.27;;;;;;;20.91;73.88;100864.19;5086712;28;20442;-71
2022/08/14 06:45:18;;;;;;;12.50;11.32;;;;;;;21.09;73.64;100858.75;5086737;28;20016;-70
2022/08/14 06:47:44;;;;;;;10.95;9.95;;;;;;;21.29;73.21;100855.00;5086736;28;20076;-70
2022/08/14 06:50:14;;;;;;;10.15;9.40;;;;;;;21.49;72.64;100859.16;5086598;28;20036;-70
2022/08/14 06:52:40;;;;;;;10.30;9.45;;;;;;;21.72;71.90;100860.56;5086910;28;20024;-71
2022/08/14 06:55:08;;;;;;;11.43;10.43;;;;;;;21.94;70.66;100857.66;5086802;28;20024;-70
2022/08/14 06:57:37;;;;;;;12.38;10.45;;;;;;;22.13;69.14;100857.34;5086355;28;20043;-71
2022/08/14 07:00:05;;;;;;;10.43;9.63;;;;;;;22.26;66.88;100852.75;5086047;28;20020;-72
2022/08/14 07:07:59;;;;;;;10.25;9.25;;;;;;;22.76;66.08;100850.13;5086442;28;20085;-72
2022/08/14 07:10:24;;;;;;;8.35;7.68;;;;;;;22.95;65.52;100846.28;5076191;28;20213;-71
2022/08/14 07:12:50;;;;;;;8.80;8.07;;;;;;;23.14;62.60;100844.13;5060263;28;20182;-71
2022/08/14 07:15:15;;;;;;;7.45;6.90;;;;;;;23.40;62.39;100850.63;5065401;28;20116;-72
2022/08/14 07:17:49;;;;;;;6.82;6.25;;;;;;;23.63;61.86;100836.06;5061308;28;20463;-72
2022/08/14 07:20:17;;;;;;;6.82;6.22;;;;;;;23.85;60.73;100838.19;5064120;28;20042;-71
2022/08/14 07:22:44;;;;;;;7.20;6.53;;;;;;;24.04;59.78;100846.56;5063964;28;20032;-71
2022/08/14 07:25:09;;;;;;;6.40;5.90;;;;;;;24.19;59.80;100836.53;5066215;28;20028;-72
2022/08/14 07:27:34;;;;;;;7.38;6.72;;;;;;;24.40;58.68;100847.47;5061560;28;20263;-72
2022/08/14 07:30:03;;;;;;;6.55;5.95;;;;;;;24.63;58.38;100848.66;5068777;28;20032;-72
2022/08/14 07:32:28;;;;;;;6.32;5.70;;;;;;;24.86;57.35;100845.34;5075468;28;20032;-72
2022/08/14 07:34:53;;;;;;;7.30;6.53;;;;;;;25.06;55.57;100843.94;5072133;28;20488;-72
2022/08/14 07:37:19;;;;;;;7.38;6.65;;;;;;;25.24;54.96;100846.97;5073656;28;20430;-72
2022/08/14 07:39:45;;;;;;;7.78;6.88;;;;;;;25.37;53.18;100839.50;5076714;28;20049;-72
2022/08/14 07:42:10;;;;;;;6.93;6.32;;;;;;;25.60;53.89;100838.78;5089607;28;20138;-72
2022/08/14 07:44:36;;;;;;;7.18;6.57;;;;;;;25.77;52.72;100837.44;5090335;28;20107;-72
2022/08/14 07:47:01;;;;;;;7.15;6.45;;;;;;;25.97;52.63;100836.78;5076449;28;20511;-73
2022/08/14 07:49:27;;;;;;;7.35;6.57;;;;;;;26.22;51.95;100822.69;5075603;28;20012;-72
2022/08/14 07:51:52;;;;;;;7.47;6.55;;;;;;;26.49;50.93;100829.78;5069900;28;20623;-71
2022/08/14 07:54:18;;;;;;;6.90;6.20;;;;;;;26.74;49.80;100829.75;5073145;28;20016;-72
2022/08/14 07:56:44;;;;;;;8.10;6.97;;;;;;;26.97;48.87;100836.00;5076043;28;20024;-73
2022/08/14 07:59:09;;;;;;;7.72;6.95;;;;;;;27.19;48.41;100839.66;5063580;28;20385;-72
2022/08/14 08:01:35;;;;;;;6.50;6.00;;;;;;;27.41;47.99;100830.88;5078570;28;20028;-72
2022/08/14 08:04:02;;;;;;;7.25;6.55;;;;;;;27.70;47.68;100839.47;5073664;28;20028;-73
2022/08/14 08:06:28;;;;;;;7.78;7.07;;;;;;;27.94;46.69;100842.06;5053723;28;20029;-73
2022/08/14 08:08:58;;;;;;;8.27;7.47;;;;;;;28.16;45.29;100846.50;5062558;28;20483;-73
2022/08/14 08:11:31;;;;;;;6.95;6.35;;;;;;;28.39;45.50;100842.00;5086017;28;20135;-72
2022/08/14 08:13:58;;;;;;;7.20;6.57;;;;;;;28.40;44.74;100843.75;5081969;28;20047;-72
2022/08/14 08:16:23;;;;;;;7.18;6.40;;;;;;;28.44;43.86;100842.69;5082960;28;20383;-73
2022/08/14 08:18:49;;;;;;;5.95;5.28;;;;;;;28.63;43.71;100839.22;5082062;28;20055;-72
2022/08/14 08:21:15;;;;;;;6.10;5.57;;;;;;;28.89;42.99;100829.19;5054576;28;20084;-73
2022/08/14 08:23:40;;;;;;;6.05;5.30;;;;;;;28.97;42.74;100827.03;5066021;28;20127;-73
2022/08/14 08:26:06;;;;;;;6.18;5.57;;;;;;;29.15;42.86;100819.13;5068597;28;20059;-71
2022/08/14 08:28:31;;;;;;;5.75;5.25;;;;;;;29.43;41.84;100811.63;5074433;28;20466;-73
2022/08/14 08:31:00;;;;;;;6.97;6.20;;;;;;;29.69;41.20;100807.69;5073176;28;20642;-73
2022/08/14 08:33:27;;;;;;;6.88;5.82;;;;;;;29.84;41.89;100810.53;5071013;28;20064;-72
2022/08/14 08:35:57;;;;;;;6.18;5.57;;;;;;;30.00;40.91;100804.41;5077097;28;20035;-73
2022/08/14 08:38:25;;;;;;;5.60;5.10;;;;;;;30.09;40.38;100809.28;5066792;28;20033;-73
2022/08/14 08:40:53;;;;;;;7.03;5.63;;;;;;;30.22;39.05;100816.66;5057756;28;20037;-73
2022/08/14 08:43:21;;;;;;;5.90;5.50;;;;;;;30.26;39.13;100826.28;5068673;28;20024;-72
2022/08/14 08:46:03;;;;;;;5.78;5.10;;;;;;;30.20;38.76;100822.94;5063819;28;20021;-72
2022/08/14 08:48:50;;;;;;;5.93;5.38;;;;;;;30.28;39.33;100819.03;5065173;28;20369;-73
2022/08/14 08:51:39;;;;;;;5.88;5.28;;;;;;;30.51;39.46;100808.97;5069394;28;20488;-73
2022/08/14 08:54:10;;;;;;;6.70;6.10;;;;;;;30.66;38.92;100808.13;5081078;28;20043;-73
2022/08/14 08:56:43;;;;;;;5.95;5.45;;;;;;;30.64;38.28;100810.03;5081307;28;20050;-73
2022/08/14 08:59:38;;;;;;;8.25;5.90;;;;;;;30.61;37.69;100809.31;5084778;28;20035;-73
2022/08/14 09:02:08;;;;;;;5.38;4.88;;;;;;;30.71;38.31;100802.53;5057658;28;20382;-72
2022/08/14 09:04:40;;;;;;;6.30;4.93;;;;;;;30.89;37.96;100807.84;5078948;28;20498;-73
2022/08/14 09:07:06;;;;;;;5.00;4.57;;;;;;;31.00;37.91;100810.81;5076516;28;20052;-72
2022/08/14 09:09:32;;;;;;;5.82;4.68;;;;;;;31.08;37.37;100809.53;5078876;28;20107;-73
2022/08/14 09:12:00;;;;;;;6.18;5.68;;;;;;;31.10;37.60;100796.94;5082341;28;20560;-72
2022/08/14 09:14:29;;;;;;;6.03;5.53;;;;;;;31.19;38.29;100796.41;5077464;28;20044;-72
2022/08/14 09:16:56;;;;;;;6.23;5.73;;;;;;;31.29;37.82;100791.38;5082303;28;20028;-72
2022/08/14 09:19:22;;;;;;;5.70;5.30;;;;;;;31.42;37.95;100790.72;5078619;28;20020;-73
2022/08/14 09:21:48;;;;;;;6.57;5.97;;;;;;;31.38;37.94;100795.34;5084152;28;20020;-72
2022/08/14 09:24:14;;;;;;;6.30;5.60;;;;;;;31.43;38.24;100789.78;5081037;28;20024;-73
2022/08/14 09:26:41;;;;;;;5.30;4.80;;;;;;;31.47;37.19;100791.31;5082111;28;20105;-72
2022/08/14 09:29:08;;;;;;;5.60;5.00;;;;;;;31.46;37.10;100778.91;5070220;28;20047;-72
2022/08/14 09:31:36;;;;;;;5.55;4.57;;;;;;;31.48;37.41;100783.19;5073638;28;20456;-70
2022/08/14 09:34:17;;;;;;;4.93;4.63;;;;;;;31.56;37.54;100780.09;5078431;28;20066;-73
2022/08/14 09:36:54;;;;;;;6.47;5.57;;;;;;;31.66;38.13;100780.41;5072499;28;20056;-69
2022/08/14 09:39:49;;;;;;;5.97;5.40;;;;;;;31.73;38.14;100775.56;5078266;28;20033;-69
2022/08/14 09:43:02;;;;;;;5.95;4.72;;;;;;;31.81;37.71;100784.00;5069713;28;20422;-69
2022/08/14 09:45:49;;;;;;;5.65;5.25;;;;;;;31.80;37.47;100766.22;5087663;28;20026;-69
2022/08/14 09:48:16;;;;;;;6.70;6.10;;;;;;;31.75;37.71;100770.97;5087789;28;20547;-66
2022/08/14 09:50:50;;;;;;;6.20;5.70;;;;;;;31.68;37.50;100764.25;5087646;28;20023;-67
2022/08/14 09:53:32;;;;;;;6.55;5.95;;;;;;;31.58;37.77;100764.81;5086988;28;20540;-67
2022/08/14 09:55:59;;;;;;;5.57;5.10;;;;;;;31.71;38.12;100759.59;5087819;28;20074;-68
2022/08/14 09:58:42;;;;;;;5.28;4.88;;;;;;;31.86;38.10;100760.47;5087432;28;20047;-67
2022/08/14 10:01:16;;;;;;;5.40;4.90;;;;;;;31.97;36.64;100748.25;5087561;28;20024;-67
2022/08/14 10:03:54;;;;;;;5.15;4.78;;;;;;;32.02;37.26;100743.53;5073395;28;20097;-67
2022/08/14 10:06:24;;;;;;;5.28;4.88;;;;;;;32.05;36.95;100743.34;5088321;28;20425;-67
2022/08/14 10:08:53;;;;;;;6.15;4.75;;;;;;;32.05;37.12;100743.34;5087331;28;20076;-67
2022/08/14 10:11:33;;;;;;;5.13;4.73;;;;;;;32.10;37.17;100735.88;5087754;28;20024;-68
2022/08/14 10:14:13;;;;;;;4.75;4.10;;;;;;;32.26;35.56;100729.56;5087217;28;20127;-68
2022/08/14 10:16:43;;;;;;;;;;;;;;;32.33;34.91;100730.91;5071022;28;20070;-67
2022/08/14 10:19:12;;;;;;;5.70;5.13;;;;;;;32.41;35.52;100727.75;5087094;28;20391;-68
2022/08/14 10:21:39;;;;;;;5.35;4.85;;;;;;;32.31;35.57;100721.25;5086963;28;20372;-67
2022/08/14 10:24:07;;;;;;;5.00;4.60;;;;;;;32.34;35.68;100715.69;5086778;28;20450;-67
2022/08/14 10:26:33;;;;;;;5.78;4.88;;;;;;;32.32;35.08;100729.19;5065813;28;20033;-66
2022/08/14 10:29:09;;;;;;;4.85;4.45;;;;;;;32.34;35.84;100719.25;5055145;28;20075;-67
2022/08/14 10:31:36;;;;;;;4.88;4.30;;;;;;;32.50;36.30;100715.59;5051856;28;20120;-67
2022/08/14 10:34:17;;;;;;;5.20;4.80;;;;;;;32.68;34.37;100710.91;5048964;28;20025;-67
2022/08/14 10:36:47;;;;;;;4.60;4.20;;;;;;;32.78;33.65;100696.88;5048176;28;20073;-67
2022/08/14 10:39:22;;;;;;;3.97;3.67;;;;;;;32.86;32.71;100696.38;5050630;28;20528;-67
2022/08/14 10:41:59;;;;;;;4.03;3.60;;;;;;;32.83;32.55;100702.84;5053177;28;20424;-66
2022/08/14 10:44:32;;;;;;;4.20;3.83;;;;;;;32.77;33.96;100690.69;5053193;28;20070;-68
2022/08/14 10:47:06;;;;;;;3.70;3.40;;;;;;;32.83;32.33;100684.91;5048704;28;20369;-66
2022/08/14 10:49:35;;;;;;;4.32;3.92;;;;;;;32.71;32.67;100680.34;5051746;28;20032;-66
2022/08/14 10:52:05;;;;;;;4.72;4.32;;;;;;;32.86;33.39;100688.34;5060536;28;20055;-66
2022/08/14 10:54:40;;;;;;;3.95;3.55;;;;;;;32.91;32.59;100686.22;5073048;28;20104;-67
2022/08/14 10:57:17;;;;;;;4.72;3.90;;;;;;;32.98;32.23;100692.03;5076732;28;20020;-66
2022/08/14 11:00:12;;;;;;;4.65;4.25;;;;;;;33.09;32.33;100685.94;5081997;28;20029;-66
2022/08/14 11:02:39;;;;;;;8.35;4.90;;;;;;;33.12;32.36;100683.97;5079517;28;20697;-67
2022/08/14 11:05:13;;;;;;;4.15;3.85;;;;;;;33.12;32.29;100669.72;5074315;28;20032;-66
2022/08/14 11:07:56;;;;;;;4.70;4.00;;;;;;;33.07;31.60;100675.31;5086453;28;20055;-67
2022/08/14 11:10:26;;;;;;;4.43;3.90;;;;;;;33.06;31.89;100679.84;5077567;28;20036;-66
2022/08/14 11:12:55;;;;;;;4.50;4.18;;;;;;;33.04;31.85;100683.59;5058998;28;20028;-66
2022/08/14 11:15:26;;;;;;;4.47;4.13;;;;;;;33.01;30.73;100691.84;5065260;28;20052;-67
2022/08/14 11:17:52;;;;;;;3.70;3.50;;;;;;;32.88;31.11;100681.06;5070485;28;20444;-66
2022/08/14 11:20:20;;;;;;;4.43;4.03;;;;;;;32.89;31.68;100685.44;5084335;28;20425;-67
2022/08/14 11:22:50;;;;;;;4.03;3.72;;;;;;;32.90;31.52;100684.50;5055814;28;20047;-66
2022/08/14 11:25:15;;;;;;;4.07;3.70;;;;;;;32.93;31.83;100685.16;5076029;28;20024;-66
2022/08/14 11:27:43;;;;;;;3.75;3.30;;;;;;;33.02;31.16;100672.09;5075696;28;20358;-67
2022/08/14 11:30:12;;;;;;;4.07;3.70;;;;;;;33.14;30.67;100670.44;5067818;28;20103;-67
2022/08/14 11:32:43;;;;;;;3.50;3.20;;;;;;;33.17;30.48;100670.25;5076657;28;20032;-67
2022/08/14 11:35:15;;;;;;;5.70;3.50;;;;;;;33.24;31.03;100676.06;5067724;28;20487;-66
2022/08/14 11:37:58;;;;;;;4.97;3.85;;;;;;;33.28;30.33;100672.22;5058750;28;20120;-67
2022/08/14 11:40:26;;;;;;;4.07;3.13;;;;;;;33.16;30.36;100660.47;5054784;28;20079;-67
2022/08/14 11:42:56;;;;;;;3.60;3.40;;;;;;;33.30;30.98;100671.13;5055741;28;20056;-66
2022/08/14 11:45:23;;;;;;;;;;;;;;;33.43;29.83;100664.94;5055797;28;20029;-67